createdAt,value
2023-01-09T00:02:10.685Z,6.62
2023-01-09T00:05:16.066Z,6.54
2023-01-09T00:08:19.312Z,6.47
2023-01-09T00:11:21.823Z,6.64
2023-01-09T00:14:24.347Z,6.72
2023-01-09T00:17:27.051Z,6.52
2023-01-09T00:20:29.486Z,6.68
2023-01-09T00:23:32.129Z,6.76
2023-01-09T00:26:34.648Z,6.51
2023-01-09T00:29:39.021Z,6.59
2023-01-09T00:32:41.419Z,6.55
2023-01-09T00:35:43.829Z,6.68
2023-01-09T00:38:46.536Z,6.65
2023-01-09T00:41:53.183Z,6.57
2023-01-09T00:45:02.652Z,6.43
2023-01-09T00:48:12.104Z,6.62
2023-01-09T00:51:15.025Z,6.49
2023-01-09T00:54:19.251Z,6.58
2023-01-09T00:57:21.719Z,6.47
2023-01-09T01:00:24.313Z,6.47
2023-01-09T01:03:26.822Z,6.53
2023-01-09T01:06:47.579Z,6.45
2023-01-09T01:09:49.967Z,6.54
2023-01-09T01:12:53.126Z,6.40
2023-01-09T01:15:55.497Z,6.43
2023-01-09T01:18:57.950Z,6.50
2023-01-09T01:22:00.373Z,6.50
2023-01-09T01:25:04.139Z,6.56
2023-01-09T01:28:07.347Z,6.57
2023-01-09T01:31:16.937Z,6.47
2023-01-09T01:34:19.620Z,6.50
2023-01-09T01:37:22.898Z,6.56
2023-01-09T01:40:25.709Z,6.72
2023-01-09T01:43:28.808Z,6.54
2023-01-09T01:46:32.833Z,6.57
2023-01-09T01:49:35.358Z,6.44
2023-01-09T01:52:38.436Z,6.33
2023-01-09T01:56:17.114Z,6.60
2023-01-09T01:59:25.184Z,6.56
2023-01-09T02:02:31.130Z,6.31
2023-01-09T02:05:35.137Z,6.36
2023-01-09T02:08:37.881Z,6.53
2023-01-09T02:11:48.542Z,6.47
2023-01-09T02:15:05.286Z,6.53
2023-01-09T02:18:25.649Z,6.66
2023-01-09T02:21:42.813Z,6.60
2023-01-09T02:25:16.797Z,6.59
2023-01-09T02:29:00.820Z,6.69
2023-01-09T02:32:18.228Z,6.69
2023-01-09T02:35:28.329Z,6.52
2023-01-09T02:38:48.965Z,6.67
2023-01-09T02:42:04.201Z,6.77
2023-01-09T02:45:06.802Z,6.63
2023-01-09T02:48:11.513Z,6.65
2023-01-09T02:51:24.298Z,6.71
2023-01-09T02:55:09.856Z,6.67
2023-01-09T02:58:22.567Z,6.71
2023-01-09T03:01:48.136Z,6.68
2023-01-09T03:05:01.874Z,6.54
2023-01-09T03:08:10.280Z,6.51
2023-01-09T03:11:13.017Z,6.64
2023-01-09T03:14:20.897Z,6.61
2023-01-09T03:17:32.527Z,6.48
2023-01-09T03:20:35.480Z,6.52
2023-01-09T03:23:58.183Z,6.43
2023-01-09T03:27:00.754Z,6.49
2023-01-09T03:30:03.348Z,6.44
2023-01-09T03:33:07.401Z,6.48
2023-01-09T03:36:11.356Z,6.48
2023-01-09T03:39:13.744Z,6.53
2023-01-09T03:42:16.629Z,6.45
2023-01-09T03:45:19.354Z,6.55
2023-01-09T03:48:21.913Z,6.56
2023-01-09T03:51:24.408Z,6.56
2023-01-09T03:54:26.826Z,6.33
2023-01-09T03:57:29.262Z,6.32
2023-01-09T04:00:31.810Z,6.44
2023-01-09T04:03:34.271Z,6.48
2023-01-09T04:06:36.668Z,6.65
2023-01-09T04:09:39.024Z,6.67
2023-01-09T04:12:41.341Z,6.48
2023-01-09T04:15:44.130Z,6.80
2023-01-09T04:18:46.533Z,6.61
2023-01-09T04:21:48.881Z,6.58
2023-01-09T04:24:51.303Z,6.54
2023-01-09T04:27:53.770Z,6.65
2023-01-09T04:30:56.224Z,6.41
2023-01-09T04:33:58.610Z,6.45
2023-01-09T04:37:01.092Z,6.50
2023-01-09T04:40:08.895Z,6.47
2023-01-09T04:43:11.263Z,6.58
2023-01-09T04:46:13.746Z,6.50
2023-01-09T04:49:16.299Z,6.59
2023-01-09T04:52:19.999Z,6.50
2023-01-09T04:55:22.609Z,6.19
2023-01-09T04:58:24.968Z,6.54
2023-01-09T05:01:28.027Z,6.48
2023-01-09T05:04:30.627Z,6.23
2023-01-09T05:07:33.609Z,6.49
2023-01-09T05:10:36.104Z,6.29
2023-01-09T05:13:38.462Z,6.27
2023-01-09T05:16:40.988Z,6.33
2023-01-09T05:19:45.531Z,6.28
2023-01-09T05:22:47.967Z,6.23
2023-01-09T05:25:50.445Z,6.32
2023-01-09T05:28:59.121Z,6.46
2023-01-09T05:32:01.546Z,6.39
2023-01-09T05:35:04.198Z,6.47
2023-01-09T05:38:06.557Z,6.56
2023-01-09T05:41:09.402Z,6.39
2023-01-09T05:44:14.958Z,6.50
2023-01-09T05:47:17.385Z,6.56
2023-01-09T05:50:19.873Z,6.52
2023-01-09T05:53:22.329Z,6.34
2023-01-09T05:56:24.781Z,6.53
2023-01-09T05:59:27.189Z,6.37
2023-01-09T06:02:29.998Z,6.49
2023-01-09T06:05:32.784Z,6.52
2023-01-09T06:08:35.238Z,6.44
2023-01-09T06:11:38.595Z,6.43
2023-01-09T06:14:41.068Z,6.41
2023-01-09T06:17:43.664Z,6.42
2023-01-09T06:20:46.146Z,6.53
2023-01-09T06:23:48.565Z,6.37
2023-01-09T06:26:50.896Z,6.61
2023-01-09T06:29:53.571Z,6.38
2023-01-09T06:32:55.952Z,6.52
2023-01-09T06:35:58.320Z,6.23
2023-01-09T06:39:01.018Z,6.52
2023-01-09T06:42:03.828Z,6.60
2023-01-09T06:45:06.798Z,6.56
2023-01-09T06:48:10.147Z,6.46
2023-01-09T06:51:12.499Z,6.38
2023-01-09T06:54:14.902Z,6.56
2023-01-09T06:57:17.266Z,6.59
2023-01-09T07:00:20.053Z,6.60
2023-01-09T07:03:22.742Z,6.47
2023-01-09T07:06:25.733Z,6.61
2023-01-09T07:09:29.734Z,6.66
2023-01-09T07:12:33.837Z,6.45
2023-01-09T07:15:37.542Z,6.64
2023-01-09T07:18:40.978Z,6.62
2023-01-09T07:21:44.134Z,6.61
2023-01-09T07:24:47.495Z,6.71
2023-01-09T07:27:49.962Z,6.70
2023-01-09T07:30:52.803Z,6.65
2023-01-09T07:33:55.218Z,6.77
2023-01-09T07:36:57.586Z,6.75
2023-01-09T07:40:00.281Z,6.64
2023-01-09T07:43:03.144Z,6.85
2023-01-09T07:46:05.725Z,6.87
2023-01-09T07:49:08.549Z,6.82
2023-01-09T07:52:11.021Z,6.67
2023-01-09T07:55:15.586Z,6.83
2023-01-09T07:58:19.151Z,6.88
2023-01-09T08:01:21.889Z,6.68
2023-01-09T08:04:25.092Z,6.97
2023-01-09T08:07:28.491Z,6.98
2023-01-09T08:10:32.109Z,6.88
2023-01-09T08:13:35.212Z,6.98
2023-01-09T08:16:37.605Z,7.02
2023-01-09T08:19:40.498Z,7.11
2023-01-09T08:22:44.128Z,6.95
2023-01-09T08:25:46.536Z,7.08
2023-01-09T08:28:48.977Z,7.10
2023-01-09T08:31:51.494Z,7.14
2023-01-09T08:34:54.273Z,6.98
2023-01-09T08:37:56.809Z,7.08
2023-01-09T08:40:59.257Z,7.11
2023-01-09T08:44:19.927Z,7.26
2023-01-09T08:47:24.324Z,7.35
2023-01-09T08:50:27.253Z,7.38
2023-01-09T08:53:31.611Z,7.65
2023-01-09T08:56:34.024Z,7.62
2023-01-09T08:59:37.306Z,7.68
2023-01-09T09:02:40.209Z,7.79
2023-01-09T09:05:44.675Z,7.87
2023-01-09T09:08:49.056Z,7.63
2023-01-09T09:11:51.803Z,7.89
2023-01-09T09:15:12.989Z,7.80
2023-01-09T09:18:15.657Z,8.00
2023-01-09T09:21:18.377Z,7.89
2023-01-09T09:24:20.967Z,8.02
2023-01-09T09:27:23.409Z,8.19
2023-01-09T09:30:25.934Z,8.13
2023-01-09T09:33:28.930Z,8.12
2023-01-09T09:36:31.382Z,8.09
2023-01-09T09:39:34.006Z,7.92
2023-01-09T09:43:12.262Z,7.85
2023-01-09T09:46:40.846Z,7.88
2023-01-09T09:50:06.056Z,7.90
2023-01-09T09:53:24.461Z,7.93
2023-01-09T09:56:31.247Z,7.93
2023-01-09T09:59:37.743Z,8.06
2023-01-09T10:02:52.023Z,8.15
2023-01-09T10:05:55.726Z,8.16
2023-01-09T10:09:02.604Z,8.29
2023-01-09T10:12:08.232Z,8.16
2023-01-09T10:15:19.730Z,8.30
2023-01-09T10:18:36.015Z,8.34
2023-01-09T10:21:48.659Z,8.33
2023-01-09T10:25:02.582Z,8.29
2023-01-09T10:28:38.492Z,8.23
2023-01-09T10:32:02.483Z,8.26
2023-01-09T10:35:42.804Z,8.53
2023-01-09T10:38:53.059Z,8.60
2023-01-09T10:41:55.470Z,8.74
2023-01-09T10:45:05.799Z,8.65
2023-01-09T10:48:26.450Z,8.72
2023-01-09T10:51:38.827Z,8.73
2023-01-09T10:54:49.437Z,8.83
2023-01-09T10:57:59.718Z,8.84
2023-01-09T11:01:03.201Z,8.90
2023-01-09T11:04:29.472Z,9.08
2023-01-09T11:07:43.316Z,8.96
2023-01-09T11:10:48.035Z,8.95
2023-01-09T11:14:27.672Z,8.68
2023-01-09T11:17:30.034Z,8.71
2023-01-09T11:20:32.467Z,8.82
2023-01-09T11:23:34.983Z,8.73
2023-01-09T11:26:37.409Z,8.47
2023-01-09T11:29:41.222Z,8.33
2023-01-09T11:32:45.595Z,8.22
2023-01-09T11:36:04.760Z,8.43
2023-01-09T11:39:29.431Z,8.19
2023-01-09T11:42:50.585Z,8.25
2023-01-09T11:46:01.659Z,8.19
2023-01-09T11:49:24.209Z,8.24
2023-01-09T11:52:26.749Z,8.36
2023-01-09T11:55:38.051Z,8.39
2023-01-09T11:58:45.129Z,8.27
2023-01-09T12:02:05.679Z,8.43
2023-01-09T12:05:20.675Z,8.50
2023-01-09T12:08:39.525Z,8.65
2023-01-09T12:11:55.265Z,8.70
2023-01-09T12:14:57.752Z,8.69
2023-01-09T12:18:23.671Z,8.63
2023-01-09T12:21:35.196Z,8.71
2023-01-09T12:24:51.437Z,8.71
2023-01-09T12:28:31.282Z,8.77
2023-01-09T12:31:55.297Z,8.72
2023-01-09T12:35:19.683Z,8.69
2023-01-09T12:38:22.368Z,8.64
2023-01-09T12:41:50.761Z,8.51
2023-01-09T12:45:08.859Z,8.43
2023-01-09T12:48:29.323Z,8.30
2023-01-09T12:51:38.756Z,8.25
2023-01-09T12:54:41.161Z,7.91
2023-01-09T12:57:53.217Z,8.12
2023-01-09T13:00:58.597Z,8.15
2023-01-09T13:04:18.322Z,8.04
2023-01-09T13:07:26.398Z,7.96
2023-01-09T13:10:33.298Z,8.21
2023-01-09T13:13:58.709Z,8.08
2023-01-09T13:17:06.186Z,7.91
2023-01-09T13:20:42.862Z,7.99
2023-01-09T13:23:54.252Z,8.10
2023-01-09T13:27:03.376Z,8.07
2023-01-09T13:30:22.626Z,8.02
2023-01-09T13:33:35.474Z,8.07
2023-01-09T13:36:40.101Z,8.13
2023-01-09T13:39:42.571Z,7.82
2023-01-09T13:42:56.547Z,7.84
2023-01-09T13:45:58.967Z,7.89
2023-01-09T13:49:02.109Z,7.59
2023-01-09T13:52:26.112Z,7.59
2023-01-09T13:55:35.597Z,7.59
2023-01-09T13:58:38.182Z,7.51
2023-01-09T14:01:42.542Z,7.28
2023-01-09T14:04:45.278Z,7.44
2023-01-09T14:07:49.941Z,7.43
2023-01-09T14:10:59.665Z,7.60
2023-01-09T14:14:04.531Z,7.64
2023-01-09T14:17:17.259Z,7.51
2023-01-09T14:20:33.834Z,7.58
2023-01-09T14:23:51.413Z,7.45
2023-01-09T14:26:58.342Z,7.32
2023-01-09T14:30:22.579Z,7.41
2023-01-09T14:33:35.840Z,7.27
2023-01-09T14:36:38.413Z,6.94
2023-01-09T14:39:45.935Z,7.25
2023-01-09T14:42:53.856Z,7.10
2023-01-09T14:46:04.165Z,6.85
2023-01-09T14:49:15.685Z,6.96
2023-01-09T14:52:30.725Z,6.78
2023-01-09T14:55:42.322Z,7.01
2023-01-09T14:58:44.664Z,6.92
2023-01-09T15:01:51.565Z,6.98
2023-01-09T15:04:57.074Z,6.72
2023-01-09T15:08:03.523Z,6.82
2023-01-09T15:11:06.217Z,6.79
2023-01-09T15:14:24.377Z,7.01
2023-01-09T15:17:36.641Z,6.93
2023-01-09T15:20:39.097Z,6.84
2023-01-09T15:23:41.512Z,6.63
2023-01-09T15:26:55.798Z,6.92
2023-01-09T15:30:16.814Z,6.84
2023-01-09T15:33:19.334Z,6.87
2023-01-09T15:36:27.559Z,6.91
2023-01-09T15:39:36.133Z,6.77
2023-01-09T15:42:58.113Z,6.71
2023-01-09T15:46:01.531Z,6.70
2023-01-09T15:49:04.169Z,6.69
2023-01-09T15:52:11.849Z,6.71
2023-01-09T15:55:35.093Z,6.61
2023-01-09T15:58:40.012Z,6.57
2023-01-09T16:01:44.859Z,6.68
2023-01-09T16:04:48.940Z,6.74
2023-01-09T16:07:51.905Z,6.76
2023-01-09T16:11:04.090Z,6.57
2023-01-09T16:14:34.705Z,6.69
2023-01-09T16:17:37.732Z,6.71
2023-01-09T16:20:40.190Z,6.63
2023-01-09T16:23:51.907Z,6.68
2023-01-09T16:27:23.926Z,6.53
2023-01-09T16:30:27.788Z,6.40
2023-01-09T16:33:31.494Z,6.68
2023-01-09T16:36:35.630Z,6.70
2023-01-09T16:39:38.793Z,6.75
2023-01-09T16:42:59.563Z,6.71
2023-01-09T16:46:02.010Z,6.52
2023-01-09T16:49:14.040Z,6.64
2023-01-09T16:52:17.529Z,6.65
2023-01-09T16:55:19.946Z,6.62
2023-01-09T16:58:28.745Z,6.58
2023-01-09T17:01:31.224Z,6.55
2023-01-09T17:04:33.657Z,6.37
2023-01-09T17:07:37.840Z,6.46
2023-01-09T17:10:40.170Z,6.46
2023-01-09T17:13:42.591Z,6.43
2023-01-09T17:16:47.630Z,6.53
2023-01-09T17:19:50.427Z,6.47
2023-01-09T17:22:52.795Z,6.65
2023-01-09T17:26:17.134Z,6.54
2023-01-09T17:29:20.061Z,6.59
2023-01-09T17:32:22.468Z,6.63
2023-01-09T17:35:24.798Z,6.40
2023-01-09T17:38:27.203Z,6.78
2023-01-09T17:41:31.649Z,6.68
2023-01-09T17:44:34.240Z,6.76
2023-01-09T17:47:36.675Z,6.75
2023-01-09T17:50:39.156Z,6.81
2023-01-09T17:53:41.502Z,6.87
2023-01-09T17:56:48.962Z,6.87
2023-01-09T17:59:51.348Z,6.81
2023-01-09T18:02:54.905Z,6.82
2023-01-09T18:05:57.425Z,6.84
2023-01-09T18:08:59.841Z,6.69
2023-01-09T18:12:03.294Z,6.75
2023-01-09T18:15:06.271Z,6.53
2023-01-09T18:18:08.774Z,6.79
2023-01-09T18:21:15.659Z,6.68
2023-01-09T18:24:17.989Z,6.75
2023-01-09T18:27:20.592Z,6.76
2023-01-09T18:30:23.129Z,6.72
2023-01-09T18:33:25.514Z,6.73
2023-01-09T18:36:30.014Z,6.68
2023-01-09T18:39:32.876Z,6.75
2023-01-09T18:42:35.345Z,6.70
2023-01-09T18:45:38.860Z,6.74
2023-01-09T18:48:41.274Z,6.64
2023-01-09T18:51:43.978Z,6.65
2023-01-09T18:54:46.364Z,6.65
2023-01-09T18:57:49.015Z,6.77
2023-01-09T19:00:55.172Z,6.72
2023-01-09T19:03:59.748Z,6.83
2023-01-09T19:07:02.166Z,6.73
2023-01-09T19:10:05.069Z,6.68
2023-01-09T19:13:07.409Z,6.63
2023-01-09T19:16:10.590Z,6.77
2023-01-09T19:19:13.341Z,6.80
2023-01-09T19:22:15.856Z,6.63
2023-01-09T19:25:18.225Z,6.85
2023-01-09T19:28:21.606Z,6.60
2023-01-09T19:31:26.417Z,6.81
2023-01-09T19:34:28.922Z,6.69
2023-01-09T19:37:31.339Z,6.74
2023-01-09T19:40:33.897Z,6.77
2023-01-09T19:43:37.214Z,6.76
2023-01-09T19:46:40.044Z,6.71
2023-01-09T19:49:42.694Z,6.75
2023-01-09T19:52:45.485Z,6.80
2023-01-09T19:55:47.837Z,7.10
2023-01-09T19:58:51.414Z,7.05
2023-01-09T20:01:55.275Z,6.92
2023-01-09T20:04:58.298Z,7.11
2023-01-09T20:08:03.463Z,7.15
2023-01-09T20:11:08.908Z,7.23
2023-01-09T20:14:16.166Z,6.98
2023-01-09T20:17:19.757Z,6.84
2023-01-09T20:20:22.673Z,6.91
2023-01-09T20:23:32.366Z,6.86
2023-01-09T20:26:36.697Z,6.88
2023-01-09T20:29:39.345Z,6.89
2023-01-09T20:32:42.376Z,6.76
2023-01-09T20:35:44.885Z,6.82
2023-01-09T20:38:47.583Z,6.95
2023-01-09T20:41:49.961Z,6.93
2023-01-09T20:44:52.319Z,6.93
2023-01-09T20:47:54.824Z,6.73
2023-01-09T20:51:03.723Z,6.75
2023-01-09T20:54:06.144Z,6.73
2023-01-09T20:57:08.500Z,6.75
2023-01-09T21:00:11.850Z,6.83
2023-01-09T21:03:16.642Z,6.76
2023-01-09T21:06:20.729Z,6.72
2023-01-09T21:09:25.296Z,6.81
2023-01-09T21:12:28.613Z,6.74
2023-01-09T21:15:30.969Z,6.54
2023-01-09T21:18:33.695Z,6.60
2023-01-09T21:21:36.203Z,6.70
2023-01-09T21:24:38.685Z,6.70
2023-01-09T21:27:50.269Z,6.63
2023-01-09T21:30:54.177Z,6.61
2023-01-09T21:33:56.663Z,6.56
2023-01-09T21:36:59.091Z,6.64
2023-01-09T21:40:02.368Z,6.56
2023-01-09T21:43:23.168Z,6.65
2023-01-09T21:46:43.933Z,6.56
2023-01-09T21:49:46.428Z,6.29
2023-01-09T21:52:48.813Z,6.42
2023-01-09T21:55:51.138Z,6.37
2023-01-09T21:58:53.675Z,6.37
2023-01-09T22:01:56.341Z,6.35
2023-01-09T22:05:00.239Z,6.45
2023-01-09T22:08:02.654Z,6.51
2023-01-09T22:11:05.422Z,6.46
2023-01-09T22:14:11.339Z,6.49
2023-01-09T22:17:13.699Z,6.45
2023-01-09T22:20:16.181Z,6.44
2023-01-09T22:23:18.686Z,6.36
2023-01-09T22:26:21.318Z,6.41
2023-01-09T22:29:24.208Z,6.48
2023-01-09T22:32:26.605Z,6.38
2023-01-09T22:35:29.165Z,6.48
2023-01-09T22:38:31.873Z,6.35
2023-01-09T22:41:34.289Z,6.58
2023-01-09T22:44:36.643Z,6.50
2023-01-09T22:47:39.056Z,6.61
2023-01-09T22:50:41.404Z,6.56
2023-01-09T22:53:45.249Z,6.41
2023-01-09T22:56:49.642Z,6.60
2023-01-09T22:59:52.045Z,6.48
2023-01-09T23:02:54.525Z,6.53
2023-01-09T23:06:01.606Z,6.73
2023-01-09T23:09:04.025Z,6.70
2023-01-09T23:12:06.809Z,6.52
2023-01-09T23:15:09.561Z,6.43
2023-01-09T23:18:12.135Z,6.43
2023-01-09T23:21:14.483Z,6.48
2023-01-09T23:24:18.418Z,6.60
2023-01-09T23:27:20.811Z,6.65
2023-01-09T23:30:23.349Z,6.66
2023-01-09T23:33:25.824Z,6.68
2023-01-09T23:36:28.173Z,6.47
2023-01-09T23:39:30.626Z,6.42
2023-01-09T23:42:51.418Z,6.69
2023-01-09T23:45:53.953Z,6.64
2023-01-09T23:48:56.386Z,6.46
2023-01-09T23:52:01.613Z,6.49
2023-01-09T23:55:04.309Z,6.52
2023-01-09T23:58:07.555Z,6.64
